createdAt,value
2024-05-09T00:00:15.975Z,11.81
2024-05-09T00:01:11.012Z,11.86
2024-05-09T00:02:10.046Z,11.91
2024-05-09T00:03:11.412Z,11.87
2024-05-09T00:04:09.936Z,11.87
2024-05-09T00:05:10.056Z,11.83
2024-05-09T00:06:10.200Z,11.84
2024-05-09T00:07:09.895Z,11.83
2024-05-09T00:08:10.252Z,11.83
2024-05-09T00:09:09.834Z,11.80
2024-05-09T00:10:17.834Z,11.77
2024-05-09T00:11:11.031Z,11.75
2024-05-09T00:12:09.939Z,11.83
2024-05-09T00:13:10.415Z,11.86
2024-05-09T00:14:09.827Z,11.80
2024-05-09T00:15:09.756Z,11.73
2024-05-09T00:16:09.774Z,11.72
2024-05-09T00:17:09.826Z,11.77
2024-05-09T00:18:10.001Z,11.73
2024-05-09T00:19:09.947Z,11.65
2024-05-09T00:20:17.486Z,11.66
2024-05-09T00:21:10.885Z,11.63
2024-05-09T00:22:09.677Z,11.68
2024-05-09T00:23:09.828Z,11.65
2024-05-09T00:24:09.653Z,11.65
2024-05-09T00:25:09.677Z,11.66
2024-05-09T00:26:09.663Z,11.70
2024-05-09T00:27:12.683Z,11.65
2024-05-09T00:28:09.630Z,11.60
2024-05-09T00:29:09.680Z,11.65
2024-05-09T00:30:14.363Z,11.68
2024-05-09T00:31:10.603Z,11.62
2024-05-09T00:32:09.653Z,11.63
2024-05-09T00:33:10.884Z,11.66
2024-05-09T00:34:09.888Z,11.57
2024-05-09T00:35:09.570Z,11.54
2024-05-09T00:36:09.518Z,11.55
2024-05-09T00:37:09.536Z,11.57
2024-05-09T00:38:09.588Z,11.52
2024-05-09T00:39:09.493Z,11.63
2024-05-09T00:40:15.110Z,11.55
2024-05-09T00:41:10.533Z,11.63
2024-05-09T00:42:09.451Z,11.59
2024-05-09T00:43:09.447Z,11.60
2024-05-09T00:44:09.481Z,11.55
2024-05-09T00:45:09.435Z,11.69
2024-05-09T00:46:09.403Z,11.57
2024-05-09T00:47:09.620Z,11.60
2024-05-09T00:48:10.601Z,11.60
2024-05-09T00:49:09.607Z,11.59
2024-05-09T00:50:12.866Z,11.60
2024-05-09T00:51:10.487Z,11.52
2024-05-09T00:52:09.337Z,11.52
2024-05-09T00:53:09.342Z,11.65
2024-05-09T00:54:09.329Z,11.65
2024-05-09T00:55:09.313Z,11.52
2024-05-09T00:56:09.380Z,11.65
2024-05-09T00:57:09.297Z,11.60
2024-05-09T00:58:09.281Z,11.57
2024-05-09T00:59:09.331Z,11.60
2024-05-09T01:00:18.452Z,11.54
2024-05-09T01:01:10.313Z,11.54
2024-05-09T01:02:09.383Z,11.55
2024-05-09T01:03:11.118Z,11.65
2024-05-09T01:04:09.473Z,11.57
2024-05-09T01:05:09.288Z,11.59
2024-05-09T01:06:09.293Z,11.59
2024-05-09T01:07:09.207Z,11.51
2024-05-09T01:08:09.651Z,11.52
2024-05-09T01:09:09.148Z,11.52
2024-05-09T01:10:14.310Z,11.47
2024-05-09T01:11:10.251Z,11.51
2024-05-09T01:12:09.483Z,11.51
2024-05-09T01:13:09.198Z,11.48
2024-05-09T01:14:09.145Z,11.48
2024-05-09T01:15:09.072Z,11.43
2024-05-09T01:16:09.076Z,11.43
2024-05-09T01:17:09.112Z,11.48
2024-05-09T01:18:09.591Z,11.44
2024-05-09T01:19:09.305Z,11.41
2024-05-09T01:20:12.858Z,11.43
2024-05-09T01:21:10.227Z,11.37
2024-05-09T01:22:09.007Z,11.36
2024-05-09T01:23:09.423Z,11.41
2024-05-09T01:24:08.966Z,11.35
2024-05-09T01:25:09.010Z,11.30
2024-05-09T01:26:09.092Z,11.41
2024-05-09T01:27:08.936Z,11.40
2024-05-09T01:28:08.930Z,11.32
2024-05-09T01:29:09.057Z,11.33
2024-05-09T01:30:11.973Z,11.23
2024-05-09T01:31:09.922Z,11.26
2024-05-09T01:32:08.979Z,11.23
2024-05-09T01:33:10.806Z,11.26
2024-05-09T01:34:08.906Z,11.29
2024-05-09T01:35:08.924Z,11.22
2024-05-09T01:36:08.830Z,11.25
2024-05-09T01:37:08.858Z,11.29
2024-05-09T01:38:08.830Z,11.22
2024-05-09T01:39:08.796Z,11.23
2024-05-09T01:40:12.322Z,11.30
2024-05-09T01:41:09.870Z,11.23
2024-05-09T01:42:08.764Z,11.23
2024-05-09T01:43:10.100Z,11.26
2024-05-09T01:44:08.772Z,11.18
2024-05-09T01:45:08.729Z,11.18
2024-05-09T01:46:08.715Z,11.15
2024-05-09T01:47:08.796Z,11.17
2024-05-09T01:48:09.074Z,11.15
2024-05-09T01:49:08.888Z,11.18
2024-05-09T01:50:10.809Z,11.12
2024-05-09T01:51:08.928Z,11.23
2024-05-09T01:52:08.650Z,11.15
2024-05-09T01:53:09.042Z,11.15
2024-05-09T01:54:08.620Z,11.08
2024-05-09T01:55:08.624Z,11.17
2024-05-09T01:56:08.633Z,11.18
2024-05-09T01:57:08.594Z,11.15
2024-05-09T01:58:08.614Z,11.07
2024-05-09T01:59:08.639Z,11.11
2024-05-09T02:00:10.307Z,11.15
2024-05-09T02:01:08.656Z,11.08
2024-05-09T02:02:08.708Z,11.08
2024-05-09T02:03:08.763Z,11.12
2024-05-09T02:04:08.740Z,11.02
2024-05-09T02:05:08.733Z,11.12
2024-05-09T02:06:08.753Z,10.94
2024-05-09T02:07:08.496Z,11.02
2024-05-09T02:08:08.516Z,10.99
2024-05-09T02:09:08.446Z,11.07
2024-05-09T02:10:13.729Z,10.99
2024-05-09T02:11:09.599Z,11.00
2024-05-09T02:12:08.681Z,11.10
2024-05-09T02:13:08.431Z,10.96
2024-05-09T02:14:08.471Z,10.87
2024-05-09T02:15:08.379Z,10.87
2024-05-09T02:16:08.366Z,10.94
2024-05-09T02:17:08.462Z,10.94
2024-05-09T02:18:08.857Z,10.96
2024-05-09T02:19:08.561Z,10.86
2024-05-09T02:20:13.147Z,10.89
2024-05-09T02:21:09.482Z,10.87
2024-05-09T02:22:08.308Z,10.84
2024-05-09T02:23:08.539Z,10.89
2024-05-09T02:24:08.310Z,10.86
2024-05-09T02:25:08.335Z,10.79
2024-05-09T02:26:08.346Z,10.79
2024-05-09T02:27:08.244Z,10.81
2024-05-09T02:28:08.230Z,10.76
2024-05-09T02:29:08.306Z,10.75
2024-05-09T02:30:18.463Z,10.75
2024-05-09T02:31:09.272Z,10.71
2024-05-09T02:32:08.283Z,10.72
2024-05-09T02:33:09.187Z,10.71
2024-05-09T02:34:08.236Z,10.67
2024-05-09T02:35:08.196Z,10.68
2024-05-09T02:36:08.149Z,10.60
2024-05-09T02:37:08.191Z,10.61
2024-05-09T02:38:08.173Z,10.60
2024-05-09T02:39:08.129Z,10.56
2024-05-09T02:40:11.711Z,10.57
2024-05-09T02:41:09.147Z,10.51
2024-05-09T02:42:08.090Z,10.48
2024-05-09T02:43:09.310Z,10.54
2024-05-09T02:44:08.095Z,10.53
2024-05-09T02:45:08.042Z,10.42
2024-05-09T02:46:08.024Z,10.40
2024-05-09T02:47:08.160Z,10.46
2024-05-09T02:48:08.247Z,10.53
2024-05-09T02:49:08.177Z,10.41
2024-05-09T02:50:08.373Z,10.44
2024-05-09T02:51:08.002Z,10.41
2024-05-09T02:52:07.953Z,10.46
2024-05-09T02:53:08.756Z,10.41
2024-05-09T02:54:07.942Z,10.40
2024-05-09T02:55:07.931Z,10.44
2024-05-09T02:56:07.997Z,10.38
2024-05-09T02:57:07.898Z,10.41
2024-05-09T02:58:07.883Z,10.34
2024-05-09T02:59:07.897Z,10.35
2024-05-09T03:00:15.083Z,10.37
2024-05-09T03:01:09.008Z,10.38
2024-05-09T03:02:07.932Z,10.37
2024-05-09T03:03:08.771Z,10.31
2024-05-09T03:04:08.021Z,10.31
2024-05-09T03:05:07.851Z,10.34
2024-05-09T03:06:07.793Z,10.23
2024-05-09T03:07:07.816Z,10.22
2024-05-09T03:08:07.988Z,10.22
2024-05-09T03:09:07.778Z,10.25
2024-05-09T03:10:18.029Z,10.25
2024-05-09T03:11:08.998Z,10.22
2024-05-09T03:12:07.825Z,10.20
2024-05-09T03:13:07.872Z,10.22
2024-05-09T03:14:07.760Z,10.16
2024-05-09T03:15:07.691Z,10.19
2024-05-09T03:16:07.699Z,10.16
2024-05-09T03:17:07.752Z,10.16
2024-05-09T03:18:07.969Z,10.22
2024-05-09T03:19:07.817Z,10.13
2024-05-09T03:20:17.002Z,10.10
2024-05-09T03:21:08.817Z,10.17
2024-05-09T03:22:07.643Z,10.25
2024-05-09T03:23:08.488Z,10.13
2024-05-09T03:24:07.603Z,10.22
2024-05-09T03:25:07.642Z,10.15
2024-05-09T03:26:07.629Z,10.12
2024-05-09T03:27:07.594Z,10.19
2024-05-09T03:28:07.648Z,10.09
2024-05-09T03:29:07.542Z,10.17
2024-05-09T03:30:09.687Z,10.19
2024-05-09T03:31:07.521Z,10.19
2024-05-09T03:32:07.578Z,10.17
2024-05-09T03:33:07.672Z,10.22
2024-05-09T03:34:07.594Z,10.10
2024-05-09T03:35:07.514Z,10.25
2024-05-09T03:36:09.775Z,10.17
2024-05-09T03:37:07.537Z,10.25
2024-05-09T03:38:07.479Z,10.22
2024-05-09T03:39:07.419Z,10.19
2024-05-09T03:40:11.785Z,10.20
2024-05-09T03:41:08.461Z,10.17
2024-05-09T03:42:07.411Z,10.25
2024-05-09T03:43:07.426Z,10.31
2024-05-09T03:44:07.465Z,10.34
2024-05-09T03:45:07.356Z,10.26
2024-05-09T03:46:07.345Z,10.37
2024-05-09T03:47:07.445Z,10.31
2024-05-09T03:48:07.704Z,10.42
2024-05-09T03:49:07.419Z,10.49
2024-05-09T03:50:12.139Z,10.44
2024-05-09T03:51:08.520Z,10.53
2024-05-09T03:52:07.372Z,10.51
2024-05-09T03:53:07.332Z,10.38
2024-05-09T03:54:07.256Z,10.51
2024-05-09T03:55:07.265Z,10.44
2024-05-09T03:56:07.299Z,10.44
2024-05-09T03:57:07.294Z,10.42
2024-05-09T03:58:07.212Z,10.53
2024-05-09T03:59:07.260Z,10.44
2024-05-09T04:00:12.202Z,10.42
2024-05-09T04:01:08.198Z,10.56
2024-05-09T04:02:07.237Z,10.54
2024-05-09T04:03:09.651Z,10.56
2024-05-09T04:04:07.186Z,10.53
2024-05-09T04:05:07.214Z,10.48
2024-05-09T04:06:07.138Z,10.57
2024-05-09T04:07:07.182Z,10.63
2024-05-09T04:08:07.292Z,10.68
2024-05-09T04:09:07.082Z,10.67
2024-05-09T04:10:11.101Z,10.74
2024-05-09T04:11:08.203Z,10.76
2024-05-09T04:12:07.116Z,10.69
2024-05-09T04:13:07.084Z,10.75
2024-05-09T04:14:07.113Z,10.75
2024-05-09T04:15:09.636Z,10.81
2024-05-09T04:16:08.007Z,10.84
2024-05-09T04:17:07.081Z,10.79
2024-05-09T04:18:07.327Z,10.81
2024-05-09T04:19:07.142Z,10.82
2024-05-09T04:20:10.529Z,10.96
2024-05-09T04:21:06.983Z,10.93
2024-05-09T04:22:06.938Z,10.82
2024-05-09T04:23:07.867Z,10.92
2024-05-09T04:24:06.912Z,10.99
2024-05-09T04:25:06.945Z,11.07
2024-05-09T04:26:06.991Z,11.00
2024-05-09T04:27:06.928Z,11.10
2024-05-09T04:28:06.874Z,11.04
2024-05-09T04:29:06.904Z,11.14
2024-05-09T04:30:10.097Z,11.18
2024-05-09T04:31:07.888Z,11.17
2024-05-09T04:32:06.899Z,11.32
2024-05-09T04:33:08.634Z,11.35
2024-05-09T04:34:06.987Z,11.40
2024-05-09T04:35:06.805Z,11.52
2024-05-09T04:36:06.776Z,11.52
2024-05-09T04:37:06.839Z,11.62
2024-05-09T04:38:07.016Z,11.69
2024-05-09T04:39:06.770Z,11.77
2024-05-09T04:40:11.164Z,11.77
2024-05-09T04:41:06.766Z,11.87
2024-05-09T04:42:06.710Z,12.04
2024-05-09T04:43:07.264Z,12.07
2024-05-09T04:44:06.733Z,12.20
2024-05-09T04:45:06.689Z,12.20
2024-05-09T04:46:06.663Z,12.37
2024-05-09T04:47:06.727Z,12.49
2024-05-09T04:48:06.758Z,12.60
2024-05-09T04:49:06.756Z,12.68
2024-05-09T04:50:11.383Z,12.83
2024-05-09T04:51:07.657Z,12.82
2024-05-09T04:52:06.600Z,12.90
2024-05-09T04:53:07.404Z,12.98
2024-05-09T04:54:08.483Z,13.09
2024-05-09T04:55:06.598Z,13.18
2024-05-09T04:56:06.677Z,13.18
2024-05-09T04:57:06.591Z,13.25
2024-05-09T04:58:06.558Z,13.28
2024-05-09T04:59:06.598Z,13.30
2024-05-09T05:00:09.450Z,13.42
2024-05-09T05:01:07.600Z,13.42
2024-05-09T05:02:06.574Z,13.53
2024-05-09T05:03:07.565Z,13.62
2024-05-09T05:04:06.543Z,13.59
2024-05-09T05:05:06.548Z,13.74
2024-05-09T05:06:06.477Z,13.83
2024-05-09T05:07:06.519Z,13.89
2024-05-09T05:08:06.462Z,13.90
2024-05-09T05:09:06.404Z,13.93
2024-05-09T05:10:09.329Z,13.86
2024-05-09T05:11:07.452Z,13.93
2024-05-09T05:12:06.686Z,13.97
2024-05-09T05:13:06.387Z,14.04
2024-05-09T05:14:06.378Z,14.05
2024-05-09T05:15:06.339Z,14.18
2024-05-09T05:16:06.344Z,14.20
2024-05-09T05:17:06.386Z,14.26
2024-05-09T05:18:06.562Z,14.17
2024-05-09T05:19:10.198Z,14.30
2024-05-09T05:20:08.639Z,14.35
2024-05-09T05:21:06.353Z,14.32
2024-05-09T05:22:06.265Z,14.43
2024-05-09T05:23:06.321Z,14.51
2024-05-09T05:24:06.235Z,14.44
2024-05-09T05:25:06.236Z,14.59
2024-05-09T05:26:06.295Z,14.69
2024-05-09T05:27:06.322Z,14.69
2024-05-09T05:28:06.196Z,14.63
2024-05-09T05:29:06.230Z,14.69
2024-05-09T05:30:09.555Z,14.81
2024-05-09T05:31:07.162Z,14.79
2024-05-09T05:32:06.280Z,14.94
2024-05-09T05:33:06.508Z,14.85
2024-05-09T05:34:06.165Z,14.97
2024-05-09T05:35:06.182Z,14.99
2024-05-09T05:36:06.095Z,15.07
2024-05-09T05:37:06.162Z,15.11
2024-05-09T05:38:06.136Z,15.21
2024-05-09T05:39:06.066Z,15.24
2024-05-09T05:40:09.409Z,15.19
2024-05-09T05:41:07.077Z,15.31
2024-05-09T05:42:06.095Z,15.27
2024-05-09T05:43:06.058Z,15.22
2024-05-09T05:44:06.218Z,15.33
2024-05-09T05:45:08.363Z,15.33
2024-05-09T05:46:06.037Z,15.39
2024-05-09T05:47:06.042Z,15.27
2024-05-09T05:48:06.796Z,15.37
2024-05-09T05:49:06.085Z,15.35
2024-05-09T05:50:14.485Z,15.37
2024-05-09T05:51:07.000Z,15.36
2024-05-09T05:52:05.950Z,15.43
2024-05-09T05:53:06.087Z,15.44
2024-05-09T05:54:05.891Z,15.55
2024-05-09T05:55:05.908Z,15.47
2024-05-09T05:56:05.994Z,15.39
2024-05-09T05:57:05.885Z,15.47
2024-05-09T05:58:05.880Z,15.47
2024-05-09T05:59:05.876Z,15.51
2024-05-09T06:00:09.536Z,15.55
2024-05-09T06:01:05.865Z,15.59
2024-05-09T06:02:05.925Z,15.65
2024-05-09T06:03:06.205Z,15.67
2024-05-09T06:04:05.855Z,15.75
2024-05-09T06:05:06.042Z,15.76
2024-05-09T06:06:05.926Z,15.77
2024-05-09T06:07:05.772Z,15.84
2024-05-09T06:08:05.795Z,15.88
2024-05-09T06:09:05.725Z,15.90
2024-05-09T06:10:09.199Z,15.84
2024-05-09T06:11:06.846Z,15.91
2024-05-09T06:12:05.803Z,15.88
2024-05-09T06:13:05.800Z,15.90
2024-05-09T06:14:05.743Z,15.97
2024-05-09T06:15:05.654Z,15.84
2024-05-09T06:16:05.648Z,15.94
2024-05-09T06:17:05.700Z,16.01
2024-05-09T06:18:05.945Z,16.08
2024-05-09T06:19:05.874Z,16.09
2024-05-09T06:21:05.699Z,16.35
2024-05-09T06:22:05.578Z,16.35
2024-05-09T06:23:05.917Z,16.56
2024-05-09T06:24:06.794Z,16.69
2024-05-09T06:25:05.585Z,16.61
2024-05-09T06:26:05.608Z,16.75
2024-05-09T06:27:05.517Z,16.75
2024-05-09T06:28:05.505Z,16.78
2024-05-09T06:29:05.559Z,16.94
2024-05-09T06:30:08.198Z,16.94
2024-05-09T06:31:05.490Z,17.04
2024-05-09T06:32:05.595Z,16.97
2024-05-09T06:33:06.083Z,17.02
2024-05-09T06:34:05.532Z,17.14
2024-05-09T06:35:05.484Z,16.99
2024-05-09T06:36:05.441Z,17.09
2024-05-09T06:37:05.445Z,17.12
2024-05-09T06:38:05.468Z,17.14
2024-05-09T06:39:05.380Z,17.08
2024-05-09T06:40:07.317Z,17.14
2024-05-09T06:41:05.409Z,17.08
2024-05-09T06:42:05.352Z,17.19
2024-05-09T06:43:05.342Z,17.19
2024-05-09T06:44:05.379Z,17.15
2024-05-09T06:45:05.319Z,17.22
2024-05-09T06:46:05.303Z,17.30
2024-05-09T06:47:05.401Z,17.36
2024-05-09T06:48:05.447Z,17.49
2024-05-09T06:49:05.789Z,17.59
2024-05-09T06:50:08.328Z,17.48
2024-05-09T06:51:06.325Z,17.76
2024-05-09T06:52:05.249Z,17.86
2024-05-09T06:53:05.345Z,17.92
2024-05-09T06:54:05.219Z,17.98
2024-05-09T06:55:05.229Z,18.13
2024-05-09T06:56:05.256Z,18.20
2024-05-09T06:57:05.177Z,18.22
2024-05-09T06:58:05.163Z,18.40
2024-05-09T06:59:05.222Z,18.47
2024-05-09T07:00:08.197Z,18.62
2024-05-09T07:01:06.232Z,18.70
2024-05-09T07:02:05.200Z,18.68
2024-05-09T07:03:05.994Z,18.73
2024-05-09T07:04:05.229Z,18.81
2024-05-09T07:05:05.177Z,18.86
2024-05-09T07:06:05.341Z,18.95
2024-05-09T07:07:05.079Z,19.04
2024-05-09T07:08:05.167Z,19.02
2024-05-09T07:09:05.108Z,19.14
2024-05-09T07:10:07.685Z,19.30
2024-05-09T07:11:05.139Z,19.31
2024-05-09T07:12:05.179Z,19.45
2024-05-09T07:13:05.007Z,19.37
2024-05-09T07:14:05.026Z,19.39
2024-05-09T07:15:04.974Z,19.37
2024-05-09T07:16:04.968Z,19.36
2024-05-09T07:17:05.067Z,19.36
2024-05-09T07:18:05.047Z,19.40
2024-05-09T07:19:05.253Z,19.45
2024-05-09T07:20:06.997Z,19.33
2024-05-09T07:21:04.968Z,19.31
2024-05-09T07:22:04.937Z,19.39
2024-05-09T07:23:05.028Z,19.39
2024-05-09T07:24:04.877Z,19.37
2024-05-09T07:25:05.067Z,19.37
2024-05-09T07:26:04.880Z,19.34
2024-05-09T07:27:04.971Z,19.36
2024-05-09T07:28:04.825Z,19.31
2024-05-09T07:29:04.905Z,19.30
2024-05-09T07:31:04.820Z,19.33
2024-05-09T07:32:04.832Z,19.26
2024-05-09T07:33:04.935Z,19.33
2024-05-09T07:34:04.837Z,19.33
2024-05-09T07:35:04.747Z,19.34
2024-05-09T07:36:04.768Z,19.39
2024-05-09T07:37:04.743Z,19.45
2024-05-09T07:38:04.820Z,19.36
2024-05-09T07:39:04.704Z,19.47
2024-05-09T07:40:07.390Z,19.51
2024-05-09T07:41:04.784Z,19.63
2024-05-09T07:42:04.672Z,19.69
2024-05-09T07:43:04.712Z,19.86
2024-05-09T07:44:04.711Z,19.85
2024-05-09T07:45:21.457Z,19.89
2024-05-09T07:47:04.456Z,19.86
2024-05-09T07:48:14.419Z,19.95
2024-05-09T07:50:53.363Z,20.19
2024-05-09T07:52:01.246Z,20.24
2024-05-09T07:53:36.269Z,20.32
2024-05-09T07:54:06.468Z,20.34
2024-05-09T07:55:04.705Z,20.47
2024-05-09T07:56:04.689Z,20.48
2024-05-09T07:57:04.607Z,20.58
2024-05-09T07:58:04.660Z,20.62
2024-05-09T07:59:04.479Z,20.62
2024-05-09T08:00:04.652Z,20.69
2024-05-09T08:01:04.611Z,20.80
2024-05-09T08:02:04.614Z,20.82
2024-05-09T08:03:04.509Z,20.93
2024-05-09T08:04:04.575Z,20.93
2024-05-09T08:05:04.470Z,20.99
2024-05-09T08:06:04.431Z,20.95
2024-05-09T08:07:04.431Z,21.05
2024-05-09T08:08:04.395Z,21.09
2024-05-09T08:09:08.130Z,21.06
2024-05-09T08:10:08.160Z,21.15
2024-05-09T08:11:05.437Z,21.17
2024-05-09T08:12:04.337Z,21.22
2024-05-09T08:13:04.531Z,21.20
2024-05-09T08:14:04.329Z,21.20
2024-05-09T08:15:04.294Z,21.27
2024-05-09T08:16:04.345Z,21.32
2024-05-09T08:17:04.335Z,21.39
2024-05-09T08:18:04.560Z,21.33
2024-05-09T08:19:04.391Z,21.32
2024-05-09T08:20:05.585Z,21.36
2024-05-09T08:21:04.227Z,21.36
2024-05-09T08:22:04.262Z,21.37
2024-05-09T08:23:04.462Z,21.42
2024-05-09T08:24:04.190Z,21.40
2024-05-09T08:25:04.254Z,21.40
2024-05-09T08:26:04.251Z,21.43
2024-05-09T08:27:04.163Z,21.40
2024-05-09T08:28:04.372Z,21.55
2024-05-09T08:29:04.207Z,21.60
2024-05-09T08:30:04.896Z,21.58
2024-05-09T08:31:06.872Z,21.67
2024-05-09T08:32:04.221Z,21.55
2024-05-09T08:33:04.325Z,21.66
2024-05-09T08:34:04.342Z,21.60
2024-05-09T08:35:04.135Z,21.69
2024-05-09T08:36:04.069Z,21.70
2024-05-09T08:37:12.868Z,21.69
2024-05-09T08:38:05.129Z,21.70
2024-05-09T08:39:04.021Z,21.66
2024-05-09T08:40:04.137Z,21.75
2024-05-09T08:41:04.055Z,21.76
2024-05-09T08:42:03.992Z,21.77
2024-05-09T08:43:04.074Z,21.77
2024-05-09T08:44:03.966Z,21.83
2024-05-09T08:45:03.967Z,21.83
2024-05-09T08:46:04.045Z,21.88
2024-05-09T08:47:03.980Z,21.92
2024-05-09T08:48:04.084Z,21.95
2024-05-09T08:49:04.158Z,21.96
2024-05-09T08:50:05.123Z,21.98
2024-05-09T08:51:03.927Z,21.95
2024-05-09T08:52:03.898Z,21.99
2024-05-09T08:53:03.972Z,22.04
2024-05-09T08:54:03.861Z,22.00
2024-05-09T08:55:04.095Z,22.07
2024-05-09T08:56:03.837Z,22.11
2024-05-09T08:57:03.826Z,22.18
2024-05-09T08:58:03.881Z,22.15
2024-05-09T08:59:03.825Z,22.29
2024-05-09T09:00:06.276Z,22.25
2024-05-09T09:01:03.956Z,22.25
2024-05-09T09:02:04.034Z,22.28
2024-05-09T09:03:03.842Z,22.28
2024-05-09T09:04:04.121Z,22.28
2024-05-09T09:05:03.980Z,22.25
2024-05-09T09:06:03.725Z,22.23
2024-05-09T09:07:03.834Z,22.28
2024-05-09T09:08:03.709Z,22.29
2024-05-09T09:09:03.690Z,22.32
2024-05-09T09:10:05.682Z,22.32
2024-05-09T09:11:03.896Z,22.36
2024-05-09T09:12:03.699Z,22.43
2024-05-09T09:13:03.787Z,22.38
2024-05-09T09:14:03.640Z,22.43
2024-05-09T09:15:03.617Z,22.38
2024-05-09T09:16:03.911Z,22.35
2024-05-09T09:17:03.640Z,22.39
2024-05-09T09:18:03.765Z,22.44
2024-05-09T09:19:03.783Z,22.39
2024-05-09T09:20:04.487Z,22.44
2024-05-09T09:21:03.620Z,22.38
2024-05-09T09:22:03.563Z,22.45
2024-05-09T09:23:03.782Z,22.43
2024-05-09T09:24:03.520Z,22.54
2024-05-09T09:25:03.547Z,22.51
2024-05-09T09:26:03.492Z,22.53
2024-05-09T09:27:03.476Z,22.55
2024-05-09T09:28:03.512Z,22.50
2024-05-09T09:29:03.484Z,22.59
2024-05-09T09:30:03.631Z,22.53
2024-05-09T09:31:03.650Z,22.54
2024-05-09T09:32:03.422Z,22.50
2024-05-09T09:33:03.751Z,22.60
2024-05-09T09:34:03.496Z,22.60
2024-05-09T09:35:03.547Z,22.59
2024-05-09T09:36:03.395Z,22.55
2024-05-09T09:37:03.519Z,22.57
2024-05-09T09:38:03.408Z,22.55
2024-05-09T09:39:03.344Z,22.66
2024-05-09T09:40:03.842Z,22.65
2024-05-09T09:41:03.355Z,22.55
2024-05-09T09:42:03.300Z,22.55
2024-05-09T09:43:03.428Z,22.63
2024-05-09T09:44:03.282Z,22.62
2024-05-09T09:45:05.504Z,22.69
2024-05-09T09:46:03.300Z,22.78
2024-05-09T09:47:03.307Z,22.75
2024-05-09T09:48:03.370Z,22.70
2024-05-09T09:49:03.364Z,22.84
2024-05-09T09:50:07.022Z,22.83
2024-05-09T09:51:03.202Z,22.80
2024-05-09T09:52:03.229Z,22.83
2024-05-09T09:53:03.228Z,22.84
2024-05-09T09:54:03.169Z,22.83
2024-05-09T09:55:03.323Z,22.84
2024-05-09T09:56:03.158Z,22.87
2024-05-09T09:57:03.142Z,22.93
2024-05-09T09:58:03.204Z,22.93
2024-05-09T09:59:03.146Z,22.93
2024-05-09T10:00:04.308Z,23.03
2024-05-09T10:01:03.357Z,23.02
2024-05-09T10:02:04.092Z,23.03
2024-05-09T10:03:03.270Z,23.03
2024-05-09T10:04:03.151Z,23.02
2024-05-09T10:05:03.354Z,23.06
2024-05-09T10:06:03.839Z,23.02
2024-05-09T10:07:03.063Z,23.05
2024-05-09T10:08:03.028Z,23.03
2024-05-09T10:09:04.361Z,23.06
2024-05-09T10:10:03.364Z,23.08
2024-05-09T10:11:03.169Z,23.13
2024-05-09T10:12:03.074Z,23.06
2024-05-09T10:13:03.081Z,23.12
2024-05-09T10:14:02.948Z,23.20
2024-05-09T10:15:05.234Z,23.15
2024-05-09T10:16:02.936Z,23.24
2024-05-09T10:17:02.994Z,23.21
2024-05-09T10:18:03.153Z,23.25
2024-05-09T10:19:03.026Z,23.24
2024-05-09T10:20:04.084Z,23.25
2024-05-09T10:21:02.892Z,23.27
2024-05-09T10:22:02.901Z,23.21
2024-05-09T10:23:02.880Z,23.28
2024-05-09T10:24:02.879Z,23.32
2024-05-09T10:25:04.949Z,23.40
2024-05-09T10:26:03.097Z,23.37
2024-05-09T10:27:02.809Z,23.32
2024-05-09T10:28:02.887Z,23.37
2024-05-09T10:29:02.819Z,23.46
2024-05-09T10:30:05.235Z,23.48
2024-05-09T10:31:02.827Z,23.56
2024-05-09T10:32:02.742Z,23.46
2024-05-09T10:33:02.987Z,23.48
2024-05-09T10:34:02.992Z,23.56
2024-05-09T10:35:02.972Z,23.56
2024-05-09T10:36:03.310Z,23.63
2024-05-09T10:37:04.907Z,23.62
2024-05-09T10:38:02.713Z,23.68
2024-05-09T10:39:02.672Z,23.77
2024-05-09T10:40:04.147Z,23.74
2024-05-09T10:41:02.821Z,23.78
2024-05-09T10:42:02.636Z,23.81
2024-05-09T10:43:05.860Z,23.88
2024-05-09T10:44:02.617Z,23.83
2024-05-09T10:45:02.623Z,23.88
2024-05-09T10:46:02.690Z,23.80
2024-05-09T10:47:02.714Z,23.73
2024-05-09T10:48:02.990Z,23.81
2024-05-09T10:49:06.320Z,23.84
2024-05-09T10:50:04.935Z,23.92
2024-05-09T10:51:02.546Z,23.84
2024-05-09T10:52:02.643Z,23.88
2024-05-09T10:53:02.609Z,23.84
2024-05-09T10:54:02.512Z,23.87
2024-05-09T10:55:05.444Z,23.93
2024-05-09T10:56:02.584Z,23.91
2024-05-09T10:57:02.462Z,23.92
2024-05-09T10:58:02.556Z,23.93
2024-05-09T10:59:02.463Z,23.86
2024-05-09T11:00:02.447Z,23.83
2024-05-09T11:01:06.286Z,23.91
2024-05-09T11:02:02.596Z,23.92
2024-05-09T11:03:02.527Z,23.87
2024-05-09T11:04:02.645Z,23.88
2024-05-09T11:05:02.658Z,23.92
2024-05-09T11:06:02.397Z,23.95
2024-05-09T11:07:05.283Z,23.95
2024-05-09T11:08:02.344Z,23.98
2024-05-09T11:09:02.355Z,23.99
2024-05-09T11:10:02.399Z,24.02
2024-05-09T11:11:02.350Z,24.03
2024-05-09T11:12:02.352Z,23.96
2024-05-09T11:13:02.357Z,24.05
2024-05-09T11:14:02.280Z,24.02
2024-05-09T11:15:02.268Z,24.08
2024-05-09T11:16:02.389Z,24.06
2024-05-09T11:17:02.407Z,24.17
2024-05-09T11:18:02.416Z,24.10
2024-05-09T11:19:02.449Z,24.10
2024-05-09T11:20:03.246Z,24.14
2024-05-09T11:21:02.235Z,24.08
2024-05-09T11:22:02.331Z,24.05
2024-05-09T11:23:02.268Z,24.10
2024-05-09T11:24:02.191Z,24.16
2024-05-09T11:25:02.255Z,24.14
2024-05-09T11:26:02.149Z,24.06
2024-05-09T11:27:02.144Z,24.10
2024-05-09T11:28:02.198Z,24.18
2024-05-09T11:29:02.208Z,24.16
2024-05-09T11:30:02.371Z,24.14
2024-05-09T11:31:02.191Z,24.23
2024-05-09T11:32:02.134Z,24.13
2024-05-09T11:33:02.149Z,24.10
2024-05-09T11:34:02.213Z,24.18
2024-05-09T11:35:02.087Z,24.14
2024-05-09T11:36:02.045Z,24.23
2024-05-09T11:37:02.106Z,24.17
2024-05-09T11:38:02.049Z,24.20
2024-05-09T11:39:02.002Z,24.21
2024-05-09T11:40:02.112Z,24.30
2024-05-09T11:41:02.021Z,24.11
2024-05-09T11:42:01.962Z,24.14
2024-05-09T11:43:02.044Z,24.16
2024-05-09T11:44:01.943Z,24.23
2024-05-09T11:45:01.945Z,24.20
2024-05-09T11:46:01.959Z,24.28
2024-05-09T11:47:01.972Z,24.21
2024-05-09T11:48:02.223Z,24.23
2024-05-09T11:49:02.176Z,24.23
2024-05-09T11:50:01.999Z,24.21
2024-05-09T11:51:01.861Z,24.28
2024-05-09T11:52:01.929Z,24.23
2024-05-09T11:53:02.020Z,24.28
2024-05-09T11:54:01.845Z,24.33
2024-05-09T11:55:01.914Z,24.38
2024-05-09T11:56:01.834Z,24.36
2024-05-09T11:57:01.803Z,24.39
2024-05-09T11:58:01.830Z,24.47
2024-05-09T11:59:01.830Z,24.48
2024-05-09T12:00:01.769Z,24.53
2024-05-09T12:01:01.905Z,24.42
2024-05-09T12:02:01.905Z,24.42
2024-05-09T12:03:01.752Z,24.48
2024-05-09T12:04:02.125Z,24.50
2024-05-09T12:05:01.840Z,24.51
2024-05-09T12:06:01.750Z,24.43
2024-05-09T12:07:01.738Z,24.50
2024-05-09T12:08:01.809Z,24.50
2024-05-09T12:09:01.678Z,24.47
2024-05-09T12:10:01.700Z,24.48
2024-05-09T12:11:01.826Z,24.47
2024-05-09T12:12:01.622Z,24.50
2024-05-09T12:13:01.803Z,24.47
2024-05-09T12:14:01.605Z,24.33
2024-05-09T12:15:01.588Z,24.51
2024-05-09T12:16:01.728Z,24.48
2024-05-09T12:17:01.678Z,24.39
2024-05-09T12:18:03.781Z,24.40
2024-05-09T12:19:01.644Z,24.40
2024-05-09T12:20:01.534Z,24.42
2024-05-09T12:21:01.539Z,24.48
2024-05-09T12:22:01.588Z,24.48
2024-05-09T12:23:01.557Z,24.51
2024-05-09T12:24:01.489Z,24.50
2024-05-09T12:25:01.509Z,24.40
2024-05-09T12:26:01.513Z,24.40
2024-05-09T12:27:01.456Z,24.45
2024-05-09T12:28:01.701Z,24.39
2024-05-09T12:29:01.490Z,24.43
2024-05-09T12:30:01.458Z,24.39
2024-05-09T12:31:01.428Z,24.33
2024-05-09T12:32:01.453Z,24.33
2024-05-09T12:33:01.540Z,24.33
2024-05-09T12:34:01.446Z,24.38
2024-05-09T12:35:01.406Z,24.36
2024-05-09T12:36:01.421Z,24.36
2024-05-09T12:37:01.396Z,24.38
2024-05-09T12:38:01.327Z,24.40
2024-05-09T12:39:01.318Z,24.43
2024-05-09T12:40:01.399Z,24.33
2024-05-09T12:41:01.396Z,24.36
2024-05-09T12:42:01.290Z,24.39
2024-05-09T12:43:01.401Z,24.38
2024-05-09T12:44:01.261Z,24.39
2024-05-09T12:45:01.277Z,24.39
2024-05-09T12:46:01.363Z,24.36
2024-05-09T12:47:01.291Z,24.39
2024-05-09T12:48:01.386Z,24.43
2024-05-09T12:49:01.527Z,24.48
2024-05-09T12:50:01.383Z,24.47
2024-05-09T12:51:01.179Z,24.50
2024-05-09T12:52:01.244Z,24.50
2024-05-09T12:53:01.698Z,24.53
2024-05-09T12:54:01.198Z,24.53
2024-05-09T12:55:01.275Z,24.58
2024-05-09T12:56:03.013Z,24.54
2024-05-09T12:57:01.118Z,24.57